Time;durP1;ratioP1;P1;durP2;ratioP2;P2;SDS_P1;SDS_P2;PMS_P1;PMS_P2;Temp;Humidity;BMP_temperature;BMP_pressure;BME280_temperature;BME280_humidity;BME280_pressure;Samples;Min_cycle;Max_cycle;Signal;HPM_P1;HPM_P2
2023/03/21 00:01:18;;;;;;;10.90;9.00;;;9.50;99.90;;;;;;5007932;28;20290;-74
2023/03/21 00:03:45;;;;;;;10.43;9.30;;;9.50;99.90;;;;;;5007693;28;20228;-74
2023/03/21 00:06:13;;;;;;;10.80;9.63;;;9.50;99.90;;;;;;5007654;28;20241;-74
2023/03/21 00:08:41;;;;;;;10.13;9.13;;;9.50;99.90;;;;;;5007594;28;21251;-74
2023/03/21 00:11:13;;;;;;;10.23;9.33;;;9.50;99.90;;;;;;5007161;28;20654;-74
2023/03/21 00:13:42;;;;;;;10.13;9.10;;;9.50;99.90;;;;;;5007297;28;20286;-74
2023/03/21 00:16:14;;;;;;;9.37;8.67;;;9.60;99.90;;;;;;5007363;28;20201;-74
2023/03/21 00:18:45;;;;;;;10.33;9.47;;;9.60;99.90;;;;;;5007239;28;20198;-75
2023/03/21 00:21:14;;;;;;;10.63;9.73;;;9.60;99.90;;;;;;5007688;28;20205;-74
2023/03/21 00:23:41;;;;;;;10.50;9.47;;;9.60;99.90;;;;;;5007143;28;20201;-74
2023/03/21 00:26:11;;;;;;;10.73;9.73;;;9.60;99.90;;;;;;5007738;28;20232;-74
2023/03/21 00:28:39;;;;;;;10.53;9.53;;;9.60;99.90;;;;;;5006935;28;20209;-74
2023/03/21 00:31:07;;;;;;;10.40;9.43;;;9.60;99.90;;;;;;5007380;28;20898;-74
2023/03/21 00:33:37;;;;;;;10.53;9.73;;;9.60;99.90;;;;;;5007050;28;20256;-73
2023/03/21 00:36:05;;;;;;;10.57;9.47;;;9.70;99.90;;;;;;5007360;28;20304;-73
2023/03/21 00:38:32;;;;;;;11.97;9.80;;;9.60;99.90;;;;;;5007202;28;20280;-74
2023/03/21 00:41:00;;;;;;;10.30;9.40;;;9.60;99.90;;;;;;5006961;28;20607;-73
2023/03/21 00:43:28;;;;;;;10.63;9.73;;;9.60;99.90;;;;;;5007129;28;20296;-74
2023/03/21 00:45:56;;;;;;;11.40;10.37;;;9.60;99.90;;;;;;5007058;28;20233;-74
2023/03/21 00:48:23;;;;;;;11.13;10.13;;;9.60;99.90;;;;;;5007270;28;20566;-74
2023/03/21 00:50:52;;;;;;;11.37;10.33;;;9.60;99.90;;;;;;5006877;28;20190;-74
2023/03/21 00:53:20;;;;;;;11.73;10.73;;;9.50;99.90;;;;;;5006810;28;20209;-76
2023/03/21 00:55:47;;;;;;;11.40;10.23;;;9.40;99.90;;;;;;5006954;28;20296;-74
2023/03/21 00:58:14;;;;;;;11.33;10.23;;;9.40;99.90;;;;;;5007193;28;20202;-75
2023/03/21 01:00:43;;;;;;;11.07;10.17;;;9.40;99.90;;;;;;5006601;28;21001;-74
2023/03/21 01:03:12;;;;;;;10.70;9.70;;;9.40;99.90;;;;;;5007007;28;20206;-74
2023/03/21 01:08:29;;;;;;;12.27;11.07;;;9.30;99.90;;;;;;5001181;28;20645;-74
2023/03/21 01:10:56;;;;;;;11.83;10.67;;;9.30;99.90;;;;;;5005028;28;20766;-74
2023/03/21 01:13:25;;;;;;;12.47;11.27;;;9.30;99.90;;;;;;5001603;28;20205;-74
2023/03/21 01:15:56;;;;;;;13.00;11.80;;;9.30;99.90;;;;;;5006470;28;20679;-74
2023/03/21 01:18:26;;;;;;;12.10;11.07;;;9.20;99.90;;;;;;5006849;28;20369;-74
2023/03/21 01:20:54;;;;;;;12.17;11.00;;;9.20;99.90;;;;;;5006473;28;20298;-74
2023/03/21 01:23:21;;;;;;;14.33;12.43;;;9.30;99.90;;;;;;5006401;28;20209;-74
2023/03/21 01:25:49;;;;;;;12.93;11.63;;;9.30;99.90;;;;;;5006259;28;20291;-74
2023/03/21 01:28:16;;;;;;;13.23;11.87;;;9.20;99.90;;;;;;5006261;28;20308;-74
2023/03/21 01:30:46;;;;;;;13.53;12.20;;;9.30;99.90;;;;;;5005832;28;20209;-74
2023/03/21 01:33:15;;;;;;;13.57;12.37;;;9.30;99.90;;;;;;5005967;28;20208;-74
2023/03/21 01:35:42;;;;;;;14.43;13.03;;;9.30;99.90;;;;;;5006077;28;20237;-74
2023/03/21 01:38:09;;;;;;;16.30;12.80;;;9.20;99.90;;;;;;5005948;28;20205;-73
2023/03/21 01:40:37;;;;;;;14.87;13.50;;;9.20;99.90;;;;;;5004844;28;20599;-74
2023/03/21 01:43:04;;;;;;;15.60;14.07;;;9.20;99.90;;;;;;5005768;28;20209;-74
2023/03/21 01:46:19;;;;;;;16.80;15.20;;;9.10;99.90;;;;;;5005674;28;20233;-73
2023/03/21 01:48:51;;;;;;;17.30;15.40;;;9.00;99.90;;;;;;4996524;28;20224;-74
2023/03/21 01:51:19;;;;;;;17.80;15.90;;;9.00;99.90;;;;;;5006107;28;20573;-73
2023/03/21 01:53:47;;;;;;;17.13;15.30;;;9.00;99.90;;;;;;5005710;28;20758;-73
2023/03/21 01:56:18;;;;;;;17.97;16.17;;;9.00;99.90;;;;;;5005882;28;20289;-76
2023/03/21 01:58:46;;;;;;;17.30;15.57;;;9.00;99.90;;;;;;5005608;28;20288;-76
2023/03/21 02:01:14;;;;;;;18.83;16.93;;;9.00;99.90;;;;;;5002605;28;20202;-77
2023/03/21 02:03:49;;;;;;;18.60;16.80;;;9.00;99.90;;;;;;5001237;28;20221;-77
2023/03/21 02:06:23;;;;;;;18.73;16.83;;;9.00;99.90;;;;;;5006038;28;20230;-73
2023/03/21 02:08:52;;;;;;;19.13;16.90;;;8.90;99.90;;;;;;5005515;28;20224;-73
2023/03/21 02:11:21;;;;;;;20.20;18.20;;;8.90;99.90;;;;;;5005334;28;20248;-73
2023/03/21 02:13:47;;;;;;;19.97;17.93;;;8.90;99.90;;;;;;5005442;28;20233;-73
2023/03/21 02:16:19;;;;;;;19.97;18.00;;;8.90;99.90;;;;;;5005725;28;20295;-73
2023/03/21 02:18:56;;;;;;;19.30;17.50;;;8.90;99.90;;;;;;5005546;28;20206;-73
2023/03/21 02:21:48;;;;;;;19.50;17.40;;;8.80;99.90;;;;;;5005177;28;20296;-73
2023/03/21 02:25:03;;;;;;;19.93;17.83;;;8.80;99.90;;;;;;5005335;28;20200;-74
2023/03/21 02:27:33;;;;;;;21.00;17.90;;;8.80;99.90;;;;;;5004926;28;20237;-73
2023/03/21 02:30:33;;;;;;;20.63;17.80;;;8.80;99.90;;;;;;5005240;28;20788;-74
2023/03/21 02:33:31;;;;;;;19.37;17.37;;;8.80;99.90;;;;;;5005192;28;20277;-74
2023/03/21 02:36:25;;;;;;;19.27;17.17;;;8.90;99.90;;;;;;4979555;28;20963;-74
2023/03/21 02:39:00;;;;;;;20.83;18.40;;;8.90;99.90;;;;;;5005294;28;20277;-74
2023/03/21 02:41:33;;;;;;;19.33;17.33;;;8.90;99.90;;;;;;5005252;28;20213;-74
2023/03/21 02:44:10;;;;;;;19.47;17.27;;;8.90;99.90;;;;;;5005156;28;20629;-74
2023/03/21 02:46:42;;;;;;;21.60;17.80;;;8.80;99.90;;;;;;5005121;28;20225;-75
2023/03/21 02:49:14;;;;;;;19.73;17.73;;;8.80;99.90;;;;;;5005494;28;20211;-75
2023/03/21 02:51:43;;;;;;;19.40;17.50;;;8.70;99.90;;;;;;5006833;28;20201;-75
2023/03/21 02:54:14;;;;;;;20.73;17.73;;;8.70;99.90;;;;;;5009514;28;20213;-75
2023/03/21 02:56:42;;;;;;;18.93;17.03;;;8.70;99.90;;;;;;5009070;28;20313;-75
2023/03/21 02:59:10;;;;;;;19.90;17.80;;;8.70;99.90;;;;;;5009388;28;20896;-75
2023/03/21 03:01:36;;;;;;;19.17;16.67;;;8.70;99.90;;;;;;5008820;28;20210;-75
2023/03/21 03:04:03;;;;;;;21.03;17.07;;;8.80;99.90;;;;;;5008733;28;20723;-75
2023/03/21 03:06:37;;;;;;;19.77;17.67;;;8.70;99.90;;;;;;5009006;28;20239;-75
2023/03/21 03:09:31;;;;;;;19.77;17.50;;;8.70;99.90;;;;;;5009158;28;20323;-73
2023/03/21 03:12:06;;;;;;;21.23;17.57;;;8.70;99.90;;;;;;5008601;28;20289;-74
2023/03/21 03:14:45;;;;;;;19.43;17.13;;;8.60;99.90;;;;;;4989395;28;20277;-75
2023/03/21 03:17:25;;;;;;;20.30;17.90;;;8.50;99.90;;;;;;4988982;28;20938;-74
2023/03/21 03:20:09;;;;;;;21.30;17.87;;;8.50;99.90;;;;;;4989087;28;20288;-74
2023/03/21 03:22:44;;;;;;;19.50;17.30;;;8.50;99.90;;;;;;5006428;28;20280;-71
2023/03/21 03:25:17;;;;;;;20.03;17.93;;;8.50;99.90;;;;;;5008955;28;20208;-71
2023/03/21 03:27:45;;;;;;;19.53;17.47;;;8.50;99.90;;;;;;5008639;28;20315;-73
2023/03/21 03:30:13;;;;;;;23.23;18.13;;;8.50;99.90;;;;;;5008798;28;20676;-73
2023/03/21 03:32:44;;;;;;;20.00;17.10;;;8.50;99.90;;;;;;5006635;28;20205;-74
2023/03/21 03:35:14;;;;;;;20.90;17.53;;;8.50;99.90;;;;;;5006617;28;20292;-73
2023/03/21 03:37:42;;;;;;;19.13;17.13;;;8.50;99.90;;;;;;5006800;28;20308;-73
2023/03/21 03:40:16;;;;;;;20.13;17.40;;;8.50;99.90;;;;;;5006442;28;20296;-72
2023/03/21 03:42:49;;;;;;;18.93;17.00;;;8.50;99.90;;;;;;5006146;28;20205;-73
2023/03/21 03:45:16;;;;;;;19.90;17.70;;;8.50;99.90;;;;;;5005706;28;20864;-73
2023/03/21 03:47:49;;;;;;;18.47;16.47;;;8.50;99.90;;;;;;5004875;28;20221;-73
2023/03/21 03:50:25;;;;;;;20.57;17.70;;;8.60;99.90;;;;;;4999332;28;20213;-73
2023/03/21 03:52:55;;;;;;;23.17;16.87;;;8.60;99.90;;;;;;5005943;28;20284;-73
2023/03/21 03:55:26;;;;;;;18.50;16.60;;;8.60;99.90;;;;;;5006265;28;20239;-74
2023/03/21 03:57:54;;;;;;;20.90;16.40;;;8.70;99.90;;;;;;5006712;28;20198;-74
2023/03/21 04:00:21;;;;;;;21.27;16.83;;;8.70;99.90;;;;;;5006511;28;20751;-74
2023/03/21 04:02:48;;;;;;;21.40;18.00;;;8.70;99.90;;;;;;5005076;28;20320;-73
2023/03/21 04:05:20;;;;;;;19.60;17.23;;;8.70;99.90;;;;;;5005843;28;20211;-73
2023/03/21 04:07:47;;;;;;;20.60;17.03;;;8.70;99.90;;;;;;5005911;28;20336;-72
2023/03/21 04:10:14;;;;;;;22.23;16.70;;;8.60;99.90;;;;;;5006445;28;20237;-73
2023/03/21 04:12:43;;;;;;;20.93;16.33;;;8.60;99.90;;;;;;5007217;28;20296;-73
2023/03/21 04:15:10;;;;;;;19.57;17.07;;;8.60;99.90;;;;;;5007144;28;20910;-73
2023/03/21 04:17:38;;;;;;;21.90;16.73;;;8.60;99.90;;;;;;5007100;28;20301;-73
2023/03/21 04:20:06;;;;;;;20.23;16.83;;;8.60;99.90;;;;;;5007409;28;20248;-73
2023/03/21 04:22:33;;;;;;;20.70;17.20;;;8.60;99.90;;;;;;5007674;28;20656;-73
2023/03/21 04:25:01;;;;;;;19.50;16.73;;;8.60;99.90;;;;;;5007473;28;20212;-73
2023/03/21 04:27:29;;;;;;;20.60;16.90;;;8.70;99.90;;;;;;5007237;28;20891;-73
2023/03/21 04:29:58;;;;;;;20.40;17.03;;;8.60;99.90;;;;;;5007221;28;20240;-73
2023/03/21 04:32:25;;;;;;;27.47;16.67;;;8.60;99.90;;;;;;5007164;28;20217;-74
2023/03/21 04:34:53;;;;;;;19.67;16.50;;;8.70;99.90;;;;;;5007042;28;20268;-73
2023/03/21 04:37:22;;;;;;;19.73;17.67;;;8.70;99.90;;;;;;5007174;28;20245;-74
2023/03/21 04:39:50;;;;;;;19.33;16.27;;;8.70;99.90;;;;;;5007019;28;20578;-74
2023/03/21 04:42:18;;;;;;;20.07;17.37;;;8.70;99.90;;;;;;5007181;28;20235;-74
2023/03/21 04:44:46;;;;;;;21.67;17.00;;;8.80;99.90;;;;;;5007278;28;20209;-74
2023/03/21 04:47:15;;;;;;;21.40;17.50;;;8.80;99.90;;;;;;5007112;28;20237;-73
2023/03/21 04:49:42;;;;;;;19.97;17.20;;;8.80;99.90;;;;;;5006539;28;20830;-74
2023/03/21 04:52:09;;;;;;;21.60;16.77;;;8.80;99.90;;;;;;5007193;28;20308;-74
2023/03/21 04:54:36;;;;;;;20.70;16.30;;;8.80;99.90;;;;;;5006873;28;20583;-74
2023/03/21 04:57:03;;;;;;;21.30;17.20;;;8.80;99.90;;;;;;5007016;28;20212;-74
2023/03/21 04:59:31;;;;;;;19.10;16.27;;;8.80;99.90;;;;;;5007154;28;20247;-73
2023/03/21 05:01:58;;;;;;;21.37;17.00;;;8.90;99.90;;;;;;5006932;28;20316;-73
2023/03/21 05:04:26;;;;;;;20.57;17.23;;;8.90;99.90;;;;;;5006946;28;20229;-74
2023/03/21 05:06:54;;;;;;;21.23;17.67;;;8.90;99.90;;;;;;5006754;28;20319;-74
2023/03/21 05:09:22;;;;;;;19.13;16.63;;;8.90;99.90;;;;;;5006926;28;20217;-74
2023/03/21 05:11:49;;;;;;;22.77;17.87;;;8.90;99.90;;;;;;5006761;28;20739;-73
2023/03/21 05:14:19;;;;;;;20.20;17.63;;;8.80;99.90;;;;;;5007041;28;20690;-74
2023/03/21 05:16:51;;;;;;;22.47;18.23;;;8.80;99.90;;;;;;5006173;28;20743;-74
2023/03/21 05:19:19;;;;;;;24.37;18.33;;;8.70;99.90;;;;;;5007205;28;20214;-73
2023/03/21 05:21:48;;;;;;;21.73;17.37;;;8.60;99.90;;;;;;5006932;28;20209;-73
2023/03/21 05:24:18;;;;;;;22.53;18.13;;;8.50;99.90;;;;;;5007140;28;20211;-73
2023/03/21 05:26:49;;;;;;;21.10;17.83;;;8.50;99.90;;;;;;5006873;28;20213;-73
2023/03/21 05:29:16;;;;;;;22.30;17.53;;;8.50;99.90;;;;;;5007036;28;20197;-73
2023/03/21 05:31:43;;;;;;;24.53;18.27;;;8.60;99.90;;;;;;5006272;28;20308;-73
2023/03/21 05:34:10;;;;;;;22.27;17.03;;;8.60;99.90;;;;;;5006484;28;20216;-73
2023/03/21 05:36:37;;;;;;;21.50;17.33;;;8.60;99.90;;;;;;5006510;28;20236;-74
2023/03/21 05:39:06;;;;;;;21.77;16.83;;;8.70;99.90;;;;;;5006613;28;20205;-74
2023/03/21 05:41:33;;;;;;;21.33;17.30;;;8.70;99.90;;;;;;5006150;28;20324;-73
2023/03/21 05:44:00;;;;;;;23.33;17.47;;;8.70;99.90;;;;;;5006165;28;20570;-73
2023/03/21 05:46:27;;;;;;;21.97;17.03;;;8.70;99.90;;;;;;5006078;28;20216;-72
2023/03/21 05:48:54;;;;;;;21.53;17.13;;;8.80;99.90;;;;;;5005980;28;20213;-74
2023/03/21 05:51:21;;;;;;;20.03;17.77;;;8.70;99.90;;;;;;5006076;28;20225;-74
2023/03/21 05:53:48;;;;;;;24.90;18.90;;;8.70;99.90;;;;;;5006044;28;20249;-73
2023/03/21 05:56:16;;;;;;;22.60;17.67;;;8.80;99.90;;;;;;5006160;28;20289;-73
2023/03/21 05:58:43;;;;;;;20.43;17.10;;;8.70;99.90;;;;;;5006156;28;20222;-73
2023/03/21 06:01:10;;;;;;;20.43;17.90;;;8.70;99.90;;;;;;5005980;28;20217;-73
2023/03/21 06:03:37;;;;;;;20.90;17.97;;;8.80;99.90;;;;;;5005655;28;20316;-74
2023/03/21 06:06:05;;;;;;;21.60;18.00;;;8.80;99.90;;;;;;5005616;28;20261;-73
2023/03/21 06:08:32;;;;;;;23.57;18.13;;;8.80;99.90;;;;;;5004013;28;20324;-73
2023/03/21 06:10:59;;;;;;;22.20;18.20;;;8.70;99.90;;;;;;5004482;28;20260;-74
2023/03/21 06:13:30;;;;;;;20.77;17.27;;;8.70;99.90;;;;;;5005410;28;20213;-73
2023/03/21 06:15:58;;;;;;;21.33;18.47;;;8.70;99.90;;;;;;5005845;28;20202;-73
2023/03/21 06:18:26;;;;;;;22.57;17.57;;;8.70;99.90;;;;;;5005617;28;20364;-73
2023/03/21 06:20:55;;;;;;;21.30;18.07;;;8.80;99.90;;;;;;5005489;28;20236;-74
2023/03/21 06:23:22;;;;;;;23.17;17.53;;;8.80;99.90;;;;;;5005733;28;20673;-73
2023/03/21 06:25:49;;;;;;;21.77;18.13;;;8.90;99.90;;;;;;5005288;28;20310;-74
2023/03/21 06:28:16;;;;;;;21.87;18.43;;;8.90;99.90;;;;;;5009829;28;20241;-73
2023/03/21 06:30:44;;;;;;;22.47;18.87;;;8.90;99.90;;;;;;5009463;28;20205;-74
2023/03/21 06:33:11;;;;;;;23.17;18.70;;;8.90;99.90;;;;;;5009803;28;20324;-74
2023/03/21 06:35:38;;;;;;;26.57;19.07;;;8.80;99.90;;;;;;5009443;28;20205;-74
2023/03/21 06:38:05;;;;;;;21.80;18.50;;;8.80;99.90;;;;;;5009767;28;20323;-73
2023/03/21 06:40:32;;;;;;;24.90;19.37;;;8.80;99.90;;;;;;5009413;28;20216;-73
2023/03/21 06:42:59;;;;;;;25.50;19.03;;;8.70;99.90;;;;;;5018774;28;20296;-73
2023/03/21 06:45:26;;;;;;;23.97;19.90;;;8.80;99.90;;;;;;5008988;28;20633;-74
2023/03/21 06:47:54;;;;;;;25.07;20.20;;;8.80;99.90;;;;;;5009011;28;20695;-74
2023/03/21 06:50:21;;;;;;;24.90;19.47;;;8.80;99.90;;;;;;5009130;28;20292;-74
2023/03/21 06:52:49;;;;;;;25.83;19.80;;;8.80;99.90;;;;;;5009045;28;20236;-74
2023/03/21 06:55:18;;;;;;;22.47;19.53;;;8.90;99.90;;;;;;5009124;28;20216;-74
2023/03/21 06:57:45;;;;;;;25.60;20.23;;;8.90;99.90;;;;;;5009065;28;20213;-73
2023/03/21 07:00:13;;;;;;;25.47;19.60;;;8.90;99.90;;;;;;5009071;28;20210;-74
2023/03/21 07:02:40;;;;;;;23.40;18.27;;;9.00;99.90;;;;;;5008679;28;20345;-74
2023/03/21 07:05:09;;;;;;;25.70;19.87;;;9.00;99.90;;;;;;5009261;28;20217;-74
2023/03/21 07:07:35;;;;;;;24.47;20.20;;;9.10;99.90;;;;;;5008889;28;20233;-73
2023/03/21 07:10:03;;;;;;;26.77;20.37;;;9.00;99.90;;;;;;5008865;28;20332;-74
2023/03/21 07:12:32;;;;;;;24.67;20.10;;;9.00;99.90;;;;;;4995118;28;20692;-74
2023/03/21 07:14:59;;;;;;;24.30;19.53;;;9.10;99.90;;;;;;4989338;28;20299;-74
2023/03/21 07:17:26;;;;;;;24.70;20.33;;;9.10;99.90;;;;;;5008981;28;20217;-74
2023/03/21 07:19:53;;;;;;;24.37;19.53;;;9.10;99.90;;;;;;5008356;28;20786;-74
2023/03/21 07:22:22;;;;;;;25.03;19.93;;;9.10;99.90;;;;;;5008729;28;20654;-74
2023/03/21 07:24:50;;;;;;;25.07;19.97;;;9.20;99.90;;;;;;5008410;28;20206;-74
2023/03/21 07:27:17;;;;;;;25.77;19.83;;;9.20;99.90;;;;;;5008510;28;20231;-74
2023/03/21 07:29:46;;;;;;;24.27;20.23;;;9.10;99.90;;;;;;5008340;28;20211;-74
2023/03/21 07:32:13;;;;;;;23.90;19.30;;;9.10;99.90;;;;;;5008348;28;20238;-74
2023/03/21 07:34:40;;;;;;;24.20;18.57;;;9.20;99.90;;;;;;5007926;28;20209;-74
2023/03/21 07:37:08;;;;;;;21.63;18.37;;;9.20;99.90;;;;;;5008721;28;20623;-74
2023/03/21 07:39:37;;;;;;;25.77;19.37;;;9.20;99.90;;;;;;5007589;28;20604;-74
2023/03/21 07:42:04;;;;;;;24.17;19.30;;;9.20;99.90;;;;;;5017508;28;20205;-73
2023/03/21 07:44:32;;;;;;;25.57;19.83;;;9.20;99.90;;;;;;5027547;28;20201;-73
2023/03/21 07:46:59;;;;;;;22.97;19.00;;;9.20;99.90;;;;;;5008256;28;20205;-73
2023/03/21 07:49:26;;;;;;;23.00;19.23;;;9.20;99.90;;;;;;5008617;28;20240;-74
2023/03/21 07:51:53;;;;;;;23.10;18.50;;;9.20;99.90;;;;;;5008455;28;20276;-74
2023/03/21 07:54:21;;;;;;;21.33;18.67;;;9.20;99.90;;;;;;5008335;28;20268;-74
2023/03/21 07:56:50;;;;;;;25.03;19.60;;;9.20;99.90;;;;;;5007752;28;20293;-74
2023/03/21 07:59:17;;;;;;;24.33;18.40;;;9.30;99.90;;;;;;5008216;28;20213;-74
2023/03/21 08:01:43;;;;;;;24.93;19.00;;;9.30;99.90;;;;;;5007955;28;20322;-74
2023/03/21 08:04:11;;;;;;;22.60;17.80;;;9.30;99.90;;;;;;5007552;28;20309;-74
2023/03/21 08:06:38;;;;;;;21.17;17.07;;;9.30;99.90;;;;;;5007397;28;20301;-74
2023/03/21 08:09:05;;;;;;;24.47;18.57;;;9.30;99.90;;;;;;5007553;28;20233;-73
2023/03/21 08:11:32;;;;;;;21.60;17.50;;;9.30;99.90;;;;;;5003828;28;20304;-74
2023/03/21 08:14:01;;;;;;;25.00;18.73;;;9.30;99.90;;;;;;5007541;28;20209;-74
2023/03/21 08:16:28;;;;;;;26.37;18.67;;;9.30;99.90;;;;;;5007574;28;20304;-74
2023/03/21 08:18:55;;;;;;;25.63;18.80;;;9.30;99.90;;;;;;5007232;28;20206;-74
2023/03/21 08:21:22;;;;;;;22.00;17.97;;;9.30;99.90;;;;;;5007791;28;20201;-74
2023/03/21 08:23:50;;;;;;;22.70;18.33;;;9.30;99.90;;;;;;5007741;28;20316;-74
2023/03/21 08:26:18;;;;;;;21.77;19.03;;;9.30;99.90;;;;;;5007371;28;20564;-74
2023/03/21 08:28:45;;;;;;;23.03;17.60;;;9.30;99.90;;;;;;5007099;28;20596;-74
2023/03/21 08:31:13;;;;;;;22.17;18.40;;;9.40;99.90;;;;;;5007113;28;20201;-74
2023/03/21 08:33:40;;;;;;;20.07;17.43;;;9.40;99.90;;;;;;5006917;28;20992;-74
2023/03/21 08:36:08;;;;;;;24.13;18.47;;;9.40;99.90;;;;;;5007307;28;20312;-74
2023/03/21 08:38:35;;;;;;;20.10;17.33;;;9.40;99.90;;;;;;5007412;28;20209;-74
2023/03/21 08:41:03;;;;;;;20.40;17.27;;;9.50;99.90;;;;;;5007717;28;20209;-74
2023/03/21 08:43:30;;;;;;;20.37;16.50;;;9.50;99.90;;;;;;5027078;28;20308;-74
2023/03/21 08:45:57;;;;;;;21.47;17.17;;;9.50;99.90;;;;;;5014037;28;20209;-74
2023/03/21 08:48:25;;;;;;;23.93;17.87;;;9.50;99.90;;;;;;5006978;28;20352;-74
2023/03/21 08:50:52;;;;;;;21.23;17.10;;;9.50;99.90;;;;;;5006539;28;20303;-74
2023/03/21 08:53:19;;;;;;;20.30;16.93;;;9.50;99.90;;;;;;5007429;28;20304;-74
2023/03/21 08:55:45;;;;;;;23.50;17.60;;;9.50;99.90;;;;;;5006971;28;20671;-74
2023/03/21 08:58:12;;;;;;;19.80;16.83;;;9.60;99.90;;;;;;5007117;28;20549;-74
2023/03/21 09:00:39;;;;;;;21.00;16.47;;;9.60;99.90;;;;;;5006966;28;20300;-74
2023/03/21 09:03:06;;;;;;;20.07;16.27;;;9.60;99.90;;;;;;5006774;28;20720;-74
2023/03/21 09:05:35;;;;;;;21.97;17.10;;;9.60;99.90;;;;;;5006575;28;20734;-74
2023/03/21 09:08:02;;;;;;;21.83;16.47;;;9.60;99.90;;;;;;5006914;28;20638;-74
2023/03/21 09:10:29;;;;;;;18.00;16.10;;;9.60;99.90;;;;;;5006089;28;20233;-74
2023/03/21 09:12:56;;;;;;;20.50;15.70;;;9.60;99.90;;;;;;5006503;28;20295;-74
2023/03/21 09:15:27;;;;;;;19.63;16.70;;;9.60;99.90;;;;;;5006377;28;20216;-74
2023/03/21 09:17:57;;;;;;;23.03;16.80;;;9.60;99.90;;;;;;5006178;28;20214;-75
2023/03/21 09:20:29;;;;;;;21.13;16.77;;;9.60;99.90;;;;;;5006016;28;20201;-75
2023/03/21 09:22:58;;;;;;;21.53;17.17;;;9.60;99.90;;;;;;5005922;28;20217;-76
2023/03/21 09:25:28;;;;;;;17.57;15.60;;;9.60;99.90;;;;;;5006261;28;20210;-75
2023/03/21 09:27:55;;;;;;;19.43;15.60;;;9.60;99.90;;;;;;5006278;28;20229;-75
2023/03/21 09:30:22;;;;;;;19.20;15.13;;;9.60;99.90;;;;;;5006697;28;20229;-74
2023/03/21 09:32:49;;;;;;;19.17;15.93;;;9.60;99.90;;;;;;5006204;28;20990;-74
2023/03/21 09:35:17;;;;;;;18.80;16.03;;;9.70;99.90;;;;;;5006238;28;20336;-75
2023/03/21 09:37:44;;;;;;;19.80;15.03;;;9.70;99.90;;;;;;5006236;28;20308;-74
2023/03/21 09:40:19;;;;;;;19.77;15.67;;;9.70;99.90;;;;;;5006557;28;20235;-74
2023/03/21 09:42:58;;;;;;;19.53;15.97;;;9.70;99.90;;;;;;5020907;28;20208;-74
2023/03/21 09:45:36;;;;;;;19.00;15.57;;;9.70;99.90;;;;;;5017372;28;20209;-74
2023/03/21 09:48:06;;;;;;;20.60;15.77;;;9.80;99.90;;;;;;5005861;28;20241;-74
2023/03/21 09:50:36;;;;;;;21.40;15.43;;;9.80;99.90;;;;;;5005756;28;20275;-74
2023/03/21 09:53:09;;;;;;;18.63;15.33;;;9.80;99.90;;;;;;5006011;28;20194;-74
2023/03/21 09:55:40;;;;;;;18.47;14.63;;;9.80;99.90;;;;;;5005803;28;20208;-74
2023/03/21 09:58:16;;;;;;;16.63;14.83;;;9.80;99.90;;;;;;5005719;28;20236;-74
2023/03/21 10:00:48;;;;;;;22.30;15.33;;;9.90;99.90;;;;;;5005184;28;20194;-74
2023/03/21 10:03:22;;;;;;;16.80;15.00;;;9.90;99.90;;;;;;5006021;28;20260;-74
2023/03/21 10:05:51;;;;;;;18.73;15.43;;;10.00;99.90;;;;;;5005585;28;20205;-75
2023/03/21 10:08:22;;;;;;;16.43;14.67;;;10.00;99.90;;;;;;5005844;28;20683;-74
2023/03/21 10:10:53;;;;;;;20.30;16.23;;;10.00;99.90;;;;;;5005179;28;20249;-74
2023/03/21 10:13:24;;;;;;;22.87;15.77;;;10.00;99.90;;;;;;5005724;28;20219;-75
2023/03/21 10:15:56;;;;;;;17.20;15.20;;;10.10;99.90;;;;;;5005818;28;20204;-74
2023/03/21 10:18:26;;;;;;;18.27;15.10;;;10.10;99.90;;;;;;5005669;28;20210;-74
2023/03/21 10:20:53;;;;;;;17.53;14.60;;;10.10;99.90;;;;;;5005127;28;20193;-73
2023/03/21 10:23:24;;;;;;;16.43;14.57;;;10.20;99.90;;;;;;5005136;28;20810;-75
2023/03/21 10:25:57;;;;;;;16.50;14.00;;;10.30;99.90;;;;;;5005292;28;20204;-74
2023/03/21 10:28:26;;;;;;;17.70;15.20;;;10.30;99.90;;;;;;5005205;28;20228;-75
2023/03/21 10:30:55;;;;;;;16.33;14.40;;;10.30;99.90;;;;;;5005335;28;20309;-75
2023/03/21 10:33:25;;;;;;;17.47;14.43;;;10.30;99.90;;;;;;5005589;28;20237;-75
2023/03/21 10:35:55;;;;;;;15.77;14.07;;;10.30;99.90;;;;;;5005232;28;20279;-74
2023/03/21 10:38:24;;;;;;;16.63;14.93;;;10.40;99.90;;;;;;5005319;28;20321;-74
2023/03/21 10:40:53;;;;;;;16.73;15.03;;;10.40;99.90;;;;;;5005091;28;20646;-74
2023/03/21 10:43:37;;;;;;;16.27;14.07;;;10.40;99.90;;;;;;5004963;28;20574;-74
2023/03/21 10:46:11;;;;;;;16.83;15.03;;;10.40;99.90;;;;;;5005333;28;20891;-74
2023/03/21 10:48:40;;;;;;;16.50;14.03;;;10.40;99.90;;;;;;5005338;28;20221;-74
2023/03/21 10:51:09;;;;;;;18.60;15.43;;;10.40;99.90;;;;;;5005895;28;20223;-75
2023/03/21 10:53:40;;;;;;;16.70;14.77;;;10.40;99.90;;;;;;5005510;28;20769;-74
2023/03/21 10:56:11;;;;;;;15.80;13.97;;;10.40;99.90;;;;;;5005715;28;20198;-74
2023/03/21 10:58:43;;;;;;;17.87;14.53;;;10.40;99.90;;;;;;5005499;28;20202;-73
2023/03/21 11:01:14;;;;;;;19.23;14.57;;;10.40;99.90;;;;;;5005499;28;20267;-74
2023/03/21 11:03:43;;;;;;;15.63;13.87;;;10.40;99.90;;;;;;5005464;28;20198;-74
2023/03/21 11:06:16;;;;;;;16.17;13.97;;;10.40;99.90;;;;;;5005598;28;20197;-73
2023/03/21 11:08:48;;;;;;;16.97;13.77;;;10.50;99.90;;;;;;5005091;28;20798;-74
2023/03/21 11:11:26;;;;;;;13.57;12.20;;;10.50;99.90;;;;;;5005163;28;20245;-74
2023/03/21 11:13:58;;;;;;;16.17;12.60;;;10.50;99.90;;;;;;5008705;28;20189;-74
2023/03/21 11:16:30;;;;;;;13.30;11.90;;;10.50;99.90;;;;;;5008946;28;20198;-74
2023/03/21 11:19:01;;;;;;;13.53;12.13;;;10.50;99.90;;;;;;5008592;28;20252;-74
2023/03/21 11:21:35;;;;;;;12.73;11.40;;;10.50;99.90;;;;;;5008968;28;20393;-74
2023/03/21 11:24:03;;;;;;;12.97;11.67;;;10.60;99.90;;;;;;5008482;28;20237;-75
2023/03/21 11:26:35;;;;;;;14.33;11.53;;;10.60;99.90;;;;;;5008628;28;20242;-75
2023/03/21 11:29:19;;;;;;;13.13;11.70;;;10.60;99.90;;;;;;5008604;28;20225;-75
2023/03/21 11:31:46;;;;;;;12.47;11.03;;;10.70;99.90;;;;;;5008520;28;20229;-75
2023/03/21 11:34:26;;;;;;;13.37;11.03;;;10.70;99.90;;;;;;5008353;28;20296;-75
2023/03/21 11:36:57;;;;;;;12.40;10.70;;;10.70;99.90;;;;;;5007971;28;20823;-75
2023/03/21 11:39:38;;;;;;;12.40;11.10;;;10.70;99.90;;;;;;5008615;28;20198;-75
2023/03/21 11:42:25;;;;;;;12.73;10.63;;;10.80;99.90;;;;;;5008330;28;20197;-75
2023/03/21 11:45:00;;;;;;;12.83;11.47;;;10.90;99.90;;;;;;5008238;28;20209;-75
2023/03/21 11:47:27;;;;;;;12.97;11.53;;;10.90;99.90;;;;;;5008191;28;20205;-75
2023/03/21 11:49:55;;;;;;;12.90;11.60;;;11.00;99.90;;;;;;5007696;28;20264;-74
2023/03/21 11:52:31;;;;;;;12.77;11.47;;;11.00;99.90;;;;;;5008004;28;20645;-75
2023/03/21 11:55:24;;;;;;;12.47;11.27;;;11.10;99.90;;;;;;5007673;28;20819;-76
2023/03/21 11:58:04;;;;;;;13.17;11.77;;;11.10;99.90;;;;;;5005678;28;20317;-75
2023/03/21 12:00:36;;;;;;;14.00;11.90;;;11.10;99.90;;;;;;5008179;28;20284;-74
2023/03/21 12:03:38;;;;;;;13.27;11.83;;;11.10;99.90;;;;;;5007819;28;20257;-74
2023/03/21 12:06:14;;;;;;;14.67;11.73;;;11.10;99.90;;;;;;5000017;28;20301;-74
2023/03/21 12:08:51;;;;;;;12.73;11.43;;;11.20;99.90;;;;;;5007542;28;20225;-74
2023/03/21 12:11:26;;;;;;;12.70;11.33;;;11.30;99.90;;;;;;5007363;28;20249;-74
2023/03/21 12:14:06;;;;;;;12.77;10.70;;;11.40;99.90;;;;;;5007369;28;20201;-74
2023/03/21 12:16:43;;;;;;;12.80;10.70;;;11.50;99.90;;;;;;5008126;28;20201;-74
2023/03/21 12:19:21;;;;;;;11.30;10.30;;;11.50;99.90;;;;;;5007613;28;20204;-74
2023/03/21 12:21:59;;;;;;;12.93;9.93;;;11.60;99.90;;;;;;5007501;28;20289;-74
2023/03/21 12:24:32;;;;;;;11.47;10.30;;;11.60;99.90;;;;;;5007379;28;20554;-75
2023/03/21 12:27:09;;;;;;;10.83;9.50;;;11.60;99.90;;;;;;5007458;28;20202;-74
2023/03/21 12:29:55;;;;;;;10.83;9.83;;;11.50;99.90;;;;;;5007428;28;20221;-74
2023/03/21 12:32:36;;;;;;;12.07;9.87;;;11.50;99.90;;;;;;5007601;28;20209;-74
2023/03/21 12:35:27;;;;;;;10.67;9.63;;;11.50;99.90;;;;;;5007578;28;20197;-74
2023/03/21 12:38:06;;;;;;;10.30;9.27;;;11.50;99.90;;;;;;5007243;28;20404;-74
2023/03/21 12:40:44;;;;;;;10.57;9.40;;;11.40;99.90;;;;;;5007042;28;20202;-74
2023/03/21 12:43:28;;;;;;;10.47;9.40;;;11.40;99.90;;;;;;5025103;28;20212;-74
2023/03/21 12:45:59;;;;;;;12.83;11.63;;;11.40;99.90;;;;;;5013820;28;20241;-74
2023/03/21 12:48:36;;;;;;;10.70;9.67;;;11.40;99.90;;;;;;5006598;28;20378;-74
2023/03/21 12:51:08;;;;;;;10.93;9.47;;;11.50;99.90;;;;;;5006571;28;20227;-74
2023/03/21 12:53:51;;;;;;;11.07;10.03;;;11.50;99.90;;;;;;5006659;28;20209;-74
2023/03/21 12:56:23;;;;;;;9.27;8.37;;;11.50;99.90;;;;;;5007092;28;20285;-74